createdAt,value
2022-09-21T00:01:00.979Z,8.89
2022-09-21T00:02:00.975Z,8.91
2022-09-21T00:04:05.433Z,8.89
2022-09-21T00:05:04.909Z,8.79
2022-09-21T00:07:08.914Z,8.80
2022-09-21T00:08:08.923Z,8.76
2022-09-21T00:10:13.414Z,8.71
2022-09-21T00:11:12.957Z,8.71
2022-09-21T00:13:16.971Z,8.71
2022-09-21T00:14:16.985Z,8.73
2022-09-21T00:16:21.496Z,8.62
2022-09-21T00:17:21.060Z,8.62
2022-09-21T00:19:25.557Z,8.66
2022-09-21T00:20:25.573Z,8.53
2022-09-21T00:21:25.608Z,8.65
2022-09-21T00:22:25.611Z,8.55
2022-09-21T00:23:25.632Z,8.52
2022-09-21T00:24:25.657Z,8.50
2022-09-21T00:25:25.677Z,8.48
2022-09-21T00:26:25.700Z,8.48
2022-09-21T00:27:25.742Z,8.52
2022-09-21T00:28:25.737Z,8.47
2022-09-21T00:29:25.756Z,8.44
2022-09-21T00:30:25.780Z,8.45
2022-09-21T00:31:25.888Z,8.43
2022-09-21T00:32:25.827Z,8.40
2022-09-21T00:33:25.840Z,8.40
2022-09-21T00:34:25.863Z,8.52
2022-09-21T00:35:25.888Z,8.47
2022-09-21T00:36:25.907Z,8.44
2022-09-21T00:37:25.924Z,8.44
2022-09-21T00:38:25.952Z,8.44
2022-09-21T00:39:25.971Z,8.41
2022-09-21T00:40:26.077Z,8.36
2022-09-21T00:41:26.014Z,8.36
2022-09-21T00:42:26.081Z,8.36
2022-09-21T00:43:26.056Z,8.34
2022-09-21T00:44:26.073Z,8.29
2022-09-21T00:45:26.155Z,8.26
2022-09-21T00:46:26.116Z,8.30
2022-09-21T00:47:26.144Z,8.30
2022-09-21T00:48:26.163Z,8.33
2022-09-21T00:49:26.179Z,8.22
2022-09-21T00:50:26.205Z,8.19
2022-09-21T00:51:26.224Z,8.19
2022-09-21T00:52:26.244Z,8.20
2022-09-21T00:53:26.262Z,8.20
2022-09-21T00:54:26.286Z,8.23
2022-09-21T00:55:26.305Z,8.28
2022-09-21T00:56:26.329Z,8.26
2022-09-21T00:57:26.347Z,8.20
2022-09-21T00:58:26.369Z,8.25
2022-09-21T00:59:30.149Z,8.19
2022-09-21T01:00:26.413Z,8.19
2022-09-21T01:01:26.464Z,8.16
2022-09-21T01:02:26.509Z,8.19
2022-09-21T01:03:26.475Z,8.20
2022-09-21T01:04:26.498Z,8.19
2022-09-21T01:05:26.528Z,8.18
2022-09-21T01:06:26.537Z,8.19
2022-09-21T01:07:26.559Z,8.12
2022-09-21T01:08:26.585Z,8.19
2022-09-21T01:09:26.627Z,8.08
2022-09-21T01:10:26.621Z,8.10
2022-09-21T01:11:26.640Z,8.11
2022-09-21T01:12:26.663Z,8.10
2022-09-21T01:13:26.687Z,8.11
2022-09-21T01:14:26.726Z,8.04
2022-09-21T01:15:26.727Z,8.01
2022-09-21T01:16:26.810Z,8.04
2022-09-21T01:17:26.763Z,8.04
2022-09-21T01:18:26.788Z,8.02
2022-09-21T01:19:26.809Z,8.01
2022-09-21T01:20:26.833Z,8.00
2022-09-21T01:21:26.853Z,7.98
2022-09-21T01:22:26.870Z,8.00
2022-09-21T01:23:26.915Z,8.04
2022-09-21T01:24:26.910Z,8.05
2022-09-21T01:25:26.934Z,8.08
2022-09-21T01:26:26.956Z,7.97
2022-09-21T01:27:26.978Z,7.97
2022-09-21T01:28:26.994Z,7.97
2022-09-21T01:29:27.015Z,7.93
2022-09-21T01:30:27.042Z,7.97
2022-09-21T01:31:27.124Z,7.93
2022-09-21T01:32:27.078Z,7.86
2022-09-21T01:33:27.099Z,7.93
2022-09-21T01:34:27.118Z,7.93
2022-09-21T01:35:27.143Z,7.97
2022-09-21T01:36:27.196Z,7.90
2022-09-21T01:37:27.186Z,7.82
2022-09-21T01:38:27.201Z,7.77
2022-09-21T01:39:27.224Z,7.83
2022-09-21T01:40:28.443Z,7.80
2022-09-21T01:41:27.283Z,7.92
2022-09-21T01:42:27.283Z,7.87
2022-09-21T01:43:27.311Z,7.82
2022-09-21T01:44:27.330Z,7.85
2022-09-21T01:45:27.420Z,7.85
2022-09-21T01:46:27.368Z,7.85
2022-09-21T01:47:27.391Z,7.80
2022-09-21T01:48:27.413Z,7.85
2022-09-21T01:49:27.434Z,7.83
2022-09-21T01:50:27.450Z,7.90
2022-09-21T01:51:27.477Z,7.72
2022-09-21T01:52:27.527Z,7.80
2022-09-21T01:53:27.515Z,7.83
2022-09-21T01:54:27.545Z,7.67
2022-09-21T01:55:27.554Z,7.77
2022-09-21T01:56:27.579Z,7.75
2022-09-21T01:57:27.598Z,7.75
2022-09-21T01:58:27.618Z,7.67
2022-09-21T01:59:27.639Z,7.64
2022-09-21T02:00:27.659Z,7.63
2022-09-21T02:01:27.696Z,7.64
2022-09-21T02:02:27.697Z,7.52
2022-09-21T02:03:27.719Z,7.64
2022-09-21T02:04:27.736Z,7.57
2022-09-21T02:05:27.757Z,7.72
2022-09-21T02:06:27.781Z,7.69
2022-09-21T02:07:27.806Z,7.61
2022-09-21T02:08:27.822Z,7.63
2022-09-21T02:09:27.842Z,7.50
2022-09-21T02:10:27.863Z,7.49
2022-09-21T02:11:27.885Z,7.49
2022-09-21T02:12:27.903Z,7.57
2022-09-21T02:13:27.926Z,7.50
2022-09-21T02:14:27.942Z,7.49
2022-09-21T02:15:27.966Z,7.49
2022-09-21T02:16:28.030Z,7.46
2022-09-21T02:17:28.005Z,7.43
2022-09-21T02:18:28.026Z,7.46
2022-09-21T02:19:28.048Z,7.37
2022-09-21T02:20:28.067Z,7.34
2022-09-21T02:21:28.088Z,7.34
2022-09-21T02:22:28.109Z,7.35
2022-09-21T02:23:28.129Z,7.34
2022-09-21T02:24:28.146Z,7.27
2022-09-21T02:25:28.169Z,7.27
2022-09-21T02:26:28.188Z,7.13
2022-09-21T02:27:28.211Z,7.10
2022-09-21T02:28:28.233Z,7.15
2022-09-21T02:29:28.251Z,7.15
2022-09-21T02:30:28.269Z,7.12
2022-09-21T02:31:28.339Z,7.10
2022-09-21T02:32:28.314Z,7.13
2022-09-21T02:33:28.333Z,7.12
2022-09-21T02:34:28.352Z,7.09
2022-09-21T02:35:28.377Z,7.16
2022-09-21T02:36:28.395Z,7.16
2022-09-21T02:37:28.413Z,7.09
2022-09-21T02:38:28.430Z,7.10
2022-09-21T02:39:28.453Z,7.09
2022-09-21T02:40:28.526Z,7.13
2022-09-21T02:41:28.493Z,7.13
2022-09-21T02:42:28.518Z,7.20
2022-09-21T02:43:28.534Z,7.17
2022-09-21T02:44:28.556Z,7.16
2022-09-21T02:45:28.576Z,7.13
2022-09-21T02:46:28.637Z,7.12
2022-09-21T02:47:28.620Z,7.13
2022-09-21T02:48:28.637Z,7.13
2022-09-21T02:49:28.659Z,7.09
2022-09-21T02:50:28.676Z,7.09
2022-09-21T02:51:28.700Z,7.06
2022-09-21T02:52:28.720Z,7.06
2022-09-21T02:53:28.735Z,6.94
2022-09-21T02:54:28.757Z,6.94
2022-09-21T02:55:28.781Z,7.06
2022-09-21T02:56:28.798Z,6.91
2022-09-21T02:57:28.821Z,6.99
2022-09-21T02:58:28.838Z,6.91
2022-09-21T02:59:28.861Z,6.98
2022-09-21T03:00:28.891Z,6.97
2022-09-21T03:01:28.902Z,6.95
2022-09-21T03:02:28.928Z,7.02
2022-09-21T03:03:28.937Z,7.02
2022-09-21T03:04:28.961Z,6.99
2022-09-21T03:05:28.980Z,7.05
2022-09-21T03:06:29.000Z,7.05
2022-09-21T03:07:29.028Z,6.95
2022-09-21T03:08:29.043Z,7.03
2022-09-21T03:09:29.061Z,7.07
2022-09-21T03:10:29.083Z,7.03
2022-09-21T03:11:29.104Z,6.95
2022-09-21T03:12:29.129Z,7.03
2022-09-21T03:13:29.145Z,6.97
2022-09-21T03:14:29.162Z,6.99
2022-09-21T03:15:29.193Z,7.03
2022-09-21T03:16:29.203Z,7.05
2022-09-21T03:17:29.227Z,6.99
2022-09-21T03:18:29.241Z,6.95
2022-09-21T03:19:29.272Z,6.95
2022-09-21T03:20:29.284Z,6.97
2022-09-21T03:21:29.306Z,6.94
2022-09-21T03:22:29.325Z,6.81
2022-09-21T03:23:29.345Z,6.85
2022-09-21T03:24:29.368Z,6.88
2022-09-21T03:25:29.387Z,6.81
2022-09-21T03:26:29.406Z,6.85
2022-09-21T03:27:29.433Z,6.85
2022-09-21T03:28:29.447Z,6.87
2022-09-21T03:29:29.463Z,6.80
2022-09-21T03:30:29.484Z,6.95
2022-09-21T03:31:29.528Z,6.92
2022-09-21T03:32:29.525Z,6.91
2022-09-21T03:33:29.549Z,6.84
2022-09-21T03:34:29.567Z,6.91
2022-09-21T03:35:29.590Z,6.97
2022-09-21T03:36:29.610Z,6.95
2022-09-21T03:37:29.626Z,6.91
2022-09-21T03:38:29.647Z,6.98
2022-09-21T03:39:29.666Z,6.97
2022-09-21T03:40:29.720Z,7.02
2022-09-21T03:41:29.707Z,6.89
2022-09-21T03:42:29.728Z,6.95
2022-09-21T03:43:29.750Z,6.97
2022-09-21T03:44:29.768Z,6.94
2022-09-21T03:45:29.789Z,7.03
2022-09-21T03:46:29.867Z,6.97
2022-09-21T03:47:29.829Z,6.95
2022-09-21T03:48:29.846Z,6.91
2022-09-21T03:49:29.870Z,7.03
2022-09-21T03:50:29.889Z,6.99
2022-09-21T03:51:29.909Z,6.89
2022-09-21T03:52:29.934Z,6.95
2022-09-21T03:53:29.949Z,6.94
2022-09-21T03:54:29.969Z,6.88
2022-09-21T03:55:29.994Z,6.79
2022-09-21T03:56:30.007Z,6.80
2022-09-21T03:57:30.028Z,6.80
2022-09-21T03:58:30.070Z,6.84
2022-09-21T03:59:30.071Z,6.80
2022-09-21T04:00:30.094Z,6.88
2022-09-21T04:01:30.144Z,6.92
2022-09-21T04:02:30.188Z,6.85
2022-09-21T04:03:30.152Z,6.87
2022-09-21T04:04:30.168Z,6.85
2022-09-21T04:05:30.187Z,6.88
2022-09-21T04:06:30.211Z,6.80
2022-09-21T04:07:30.229Z,6.88
2022-09-21T04:08:30.250Z,6.69
2022-09-21T04:09:30.267Z,6.80
2022-09-21T04:10:30.288Z,6.70
2022-09-21T04:11:30.308Z,6.67
2022-09-21T04:12:30.329Z,6.71
2022-09-21T04:13:30.350Z,6.70
2022-09-21T04:14:30.369Z,6.67
2022-09-21T04:15:30.439Z,6.64
2022-09-21T04:16:30.408Z,6.55
2022-09-21T04:17:30.427Z,6.52
2022-09-21T04:18:30.451Z,6.49
2022-09-21T04:19:30.470Z,6.52
2022-09-21T04:20:30.496Z,6.61
2022-09-21T04:21:30.530Z,6.56
2022-09-21T04:22:30.528Z,6.52
2022-09-21T04:23:30.546Z,6.49
2022-09-21T04:24:30.566Z,6.34
2022-09-21T04:25:30.587Z,6.44
2022-09-21T04:26:30.608Z,6.44
2022-09-21T04:27:30.628Z,6.36
2022-09-21T04:28:30.680Z,6.40
2022-09-21T04:29:30.669Z,6.40
2022-09-21T04:30:34.362Z,6.44
2022-09-21T04:31:30.793Z,6.49
2022-09-21T04:32:30.728Z,6.37
2022-09-21T04:33:30.750Z,6.46
2022-09-21T04:34:30.763Z,6.33
2022-09-21T04:35:30.786Z,6.40
2022-09-21T04:36:35.680Z,6.46
2022-09-21T04:37:30.826Z,6.43
2022-09-21T04:38:30.844Z,6.36
2022-09-21T04:39:30.866Z,6.38
2022-09-21T04:40:30.923Z,6.33
2022-09-21T04:41:30.904Z,6.31
2022-09-21T04:42:30.927Z,6.28
2022-09-21T04:43:30.946Z,6.31
2022-09-21T04:44:30.967Z,6.30
2022-09-21T04:45:30.983Z,6.37
2022-09-21T04:46:31.034Z,6.18
2022-09-21T04:47:31.027Z,6.19
2022-09-21T04:48:31.046Z,6.27
2022-09-21T04:49:31.063Z,6.30
2022-09-21T04:50:31.088Z,6.22
2022-09-21T04:51:31.106Z,6.19
2022-09-21T04:52:31.124Z,6.22
2022-09-21T04:53:31.145Z,6.27
2022-09-21T04:54:31.189Z,6.21
2022-09-21T04:55:31.184Z,6.33
2022-09-21T04:56:31.205Z,6.25
2022-09-21T04:57:31.223Z,6.33
2022-09-21T04:58:31.241Z,6.36
2022-09-21T04:59:31.271Z,6.36
2022-09-21T05:00:31.283Z,6.37
2022-09-21T05:01:31.338Z,6.38
2022-09-21T05:02:31.319Z,6.38
2022-09-21T05:03:31.375Z,6.34
2022-09-21T05:04:31.363Z,6.36
2022-09-21T05:05:31.382Z,6.34
2022-09-21T05:06:31.401Z,6.37
2022-09-21T05:07:31.424Z,6.36
2022-09-21T05:08:31.441Z,6.36
2022-09-21T05:09:31.463Z,6.33
2022-09-21T05:10:31.482Z,6.40
2022-09-21T05:11:31.503Z,6.43
2022-09-21T05:12:31.524Z,6.43
2022-09-21T05:13:31.541Z,6.44
2022-09-21T05:14:31.561Z,6.43
2022-09-21T05:15:31.641Z,6.48
2022-09-21T05:16:31.597Z,6.48
2022-09-21T05:17:31.622Z,6.64
2022-09-21T05:18:31.639Z,6.61
2022-09-21T05:19:31.658Z,6.71
2022-09-21T05:20:31.686Z,6.69
2022-09-21T05:21:31.703Z,6.62
2022-09-21T05:22:31.720Z,6.64
2022-09-21T05:23:31.740Z,6.66
2022-09-21T05:24:31.763Z,6.67
2022-09-21T05:25:31.781Z,6.69
2022-09-21T05:26:38.987Z,6.73
2022-09-21T05:29:40.264Z,6.70
2022-09-21T05:30:47.807Z,6.73
2022-09-21T05:32:43.807Z,6.80
2022-09-21T05:33:43.813Z,6.77
2022-09-21T05:35:48.802Z,6.80
2022-09-21T05:36:47.847Z,6.89
2022-09-21T05:38:51.857Z,6.95
2022-09-21T05:39:51.867Z,6.91
2022-09-21T05:41:45.341Z,7.06
2022-09-21T05:42:44.808Z,7.05
2022-09-21T05:44:48.813Z,7.15
2022-09-21T05:45:48.837Z,7.13
2022-09-21T05:47:53.311Z,7.15
2022-09-21T05:48:52.838Z,7.16
2022-09-21T05:50:45.966Z,7.16
2022-09-21T05:51:45.980Z,7.13
2022-09-21T05:53:50.467Z,7.25
2022-09-21T05:54:50.007Z,7.23
2022-09-21T05:56:54.009Z,7.15
2022-09-21T05:57:54.018Z,7.24
2022-09-21T05:59:58.505Z,7.23
2022-09-21T06:00:58.085Z,7.20
2022-09-21T06:03:02.047Z,7.25
2022-09-21T06:04:02.061Z,7.28
2022-09-21T06:06:06.543Z,7.24
2022-09-21T06:07:06.093Z,7.24
2022-09-21T06:09:10.108Z,7.12
2022-09-21T06:10:10.121Z,7.20
2022-09-21T06:12:03.595Z,7.17
2022-09-21T06:13:03.059Z,7.21
2022-09-21T06:15:07.068Z,7.24
2022-09-21T06:16:07.081Z,7.10
2022-09-21T06:18:16.926Z,7.12
2022-09-21T06:19:11.113Z,7.23
2022-09-21T06:21:04.047Z,7.23
2022-09-21T06:22:04.058Z,7.31
2022-09-21T06:24:08.542Z,7.39
2022-09-21T06:25:08.082Z,7.45
2022-09-21T06:27:12.089Z,7.50
2022-09-21T06:28:12.098Z,7.50
2022-09-21T06:30:16.591Z,7.69
2022-09-21T06:31:16.131Z,7.67
2022-09-21T06:33:20.152Z,7.67
2022-09-21T06:34:20.157Z,7.67
2022-09-21T06:36:24.642Z,7.80
2022-09-21T06:37:24.176Z,7.74
2022-09-21T06:39:28.208Z,7.82
2022-09-21T06:40:28.374Z,7.89
2022-09-21T06:42:32.704Z,8.07
2022-09-21T06:43:32.237Z,8.02
2022-09-21T06:45:36.267Z,8.22
2022-09-21T06:46:36.253Z,8.18
2022-09-21T06:48:40.737Z,8.45
2022-09-21T06:49:42.502Z,8.48
2022-09-21T06:51:33.210Z,8.53
2022-09-21T06:52:33.233Z,8.66
2022-09-21T06:54:26.694Z,8.53
2022-09-21T06:55:26.359Z,8.61
2022-09-21T06:57:30.368Z,8.68
2022-09-21T06:58:30.381Z,8.80
2022-09-21T07:00:34.870Z,8.89
2022-09-21T07:01:34.487Z,8.86
2022-09-21T07:03:38.458Z,8.94
2022-09-21T07:04:38.471Z,9.01
2022-09-21T07:06:42.960Z,9.01
2022-09-21T07:07:42.491Z,9.04
2022-09-21T07:10:46.518Z,9.33
2022-09-21T07:12:51.001Z,9.42
2022-09-21T07:13:50.536Z,9.51
2022-09-21T07:15:54.541Z,9.53
2022-09-21T07:16:54.552Z,9.53
2022-09-21T07:19:10.090Z,9.50
2022-09-21T07:19:58.573Z,9.58
2022-09-21T07:21:51.517Z,9.65
2022-09-21T07:22:51.529Z,9.72
2022-09-21T07:24:56.055Z,9.87
2022-09-21T07:25:55.560Z,9.91
2022-09-21T07:28:00.596Z,10.05
2022-09-21T07:29:00.605Z,10.05
2022-09-21T07:31:05.097Z,10.11
2022-09-21T07:32:04.691Z,10.11
2022-09-21T07:34:08.676Z,10.08
2022-09-21T07:35:08.658Z,10.17
2022-09-21T07:36:08.685Z,10.15
2022-09-21T07:37:08.699Z,10.23
2022-09-21T07:38:08.752Z,10.18
2022-09-21T07:39:08.746Z,10.04
2022-09-21T07:40:08.800Z,10.23
2022-09-21T07:41:08.790Z,10.18
2022-09-21T07:42:08.826Z,10.15
2022-09-21T07:43:08.837Z,10.32
2022-09-21T07:44:08.884Z,10.36
2022-09-21T07:45:08.879Z,10.38
2022-09-21T07:46:09.013Z,10.26
2022-09-21T07:47:08.924Z,10.34
2022-09-21T07:48:08.952Z,10.27
2022-09-21T07:49:08.971Z,10.27
2022-09-21T07:50:08.992Z,10.25
2022-09-21T07:51:09.014Z,10.32
2022-09-21T07:52:10.735Z,10.22
2022-09-21T07:53:09.058Z,10.32
2022-09-21T07:54:09.082Z,10.26
2022-09-21T07:55:09.102Z,10.30
2022-09-21T07:56:09.126Z,10.26
2022-09-21T07:57:09.157Z,10.44
2022-09-21T07:58:09.172Z,10.52
2022-09-21T07:59:09.199Z,10.66
2022-09-21T08:00:09.217Z,10.63
2022-09-21T08:01:09.296Z,10.61
2022-09-21T08:02:09.305Z,10.61
2022-09-21T08:03:09.286Z,10.74
2022-09-21T08:04:09.374Z,10.67
2022-09-21T08:05:09.333Z,10.79
2022-09-21T08:06:09.352Z,10.92
2022-09-21T08:07:09.379Z,10.97
2022-09-21T08:08:09.401Z,11.07
2022-09-21T08:09:09.422Z,11.11
2022-09-21T08:10:09.446Z,11.35
2022-09-21T08:11:09.465Z,11.46
2022-09-21T08:12:09.493Z,11.40
2022-09-21T08:13:09.532Z,11.52
2022-09-21T08:14:09.538Z,11.52
2022-09-21T08:15:25.032Z,11.51
2022-09-21T08:16:09.624Z,11.60
2022-09-21T08:17:09.607Z,11.67
2022-09-21T08:18:09.631Z,11.58
2022-09-21T08:19:09.666Z,11.60
2022-09-21T08:20:09.676Z,11.67
2022-09-21T08:21:11.911Z,11.73
2022-09-21T08:22:09.724Z,11.75
2022-09-21T08:23:09.749Z,11.73
2022-09-21T08:24:09.768Z,11.83
2022-09-21T08:25:09.793Z,11.86
2022-09-21T08:26:09.815Z,11.99
2022-09-21T08:27:09.841Z,11.95
2022-09-21T08:28:10.256Z,11.96
2022-09-21T08:29:09.988Z,11.99
2022-09-21T08:30:09.907Z,11.99
2022-09-21T08:31:10.002Z,12.16
2022-09-21T08:32:15.822Z,12.16
2022-09-21T08:33:09.980Z,12.27
2022-09-21T08:34:10.002Z,12.24
2022-09-21T08:35:10.027Z,12.34
2022-09-21T08:36:10.048Z,12.31
2022-09-21T08:37:10.075Z,12.31
2022-09-21T08:38:10.101Z,12.32
2022-09-21T08:39:10.121Z,12.34
2022-09-21T08:40:10.192Z,12.29
2022-09-21T08:41:10.167Z,12.32
2022-09-21T08:42:10.193Z,12.31
2022-09-21T08:43:10.212Z,12.45
2022-09-21T08:44:10.239Z,12.45
2022-09-21T08:45:10.275Z,12.50
2022-09-21T08:46:10.284Z,12.64
2022-09-21T08:47:10.306Z,12.64
2022-09-21T08:48:10.333Z,12.65
2022-09-21T08:49:10.358Z,12.71
2022-09-21T08:50:10.372Z,12.75
2022-09-21T08:51:10.398Z,12.83
2022-09-21T08:52:12.661Z,12.90
2022-09-21T08:53:10.444Z,12.90
2022-09-21T08:54:10.469Z,12.83
2022-09-21T08:55:14.181Z,12.83
2022-09-21T08:56:10.513Z,12.89
2022-09-21T08:57:10.554Z,12.86
2022-09-21T08:58:10.562Z,12.96
2022-09-21T08:59:10.584Z,13.00
2022-09-21T09:00:10.605Z,13.07
2022-09-21T09:01:10.676Z,13.15
2022-09-21T09:02:10.715Z,13.12
2022-09-21T09:03:10.675Z,13.20
2022-09-21T09:04:10.700Z,13.33
2022-09-21T09:05:10.727Z,13.26
2022-09-21T09:06:10.751Z,13.28
2022-09-21T09:07:10.770Z,13.30
2022-09-21T09:08:10.792Z,13.46
2022-09-21T09:09:10.817Z,13.44
2022-09-21T09:10:10.844Z,13.49
2022-09-21T09:11:10.861Z,13.55
2022-09-21T09:12:11.448Z,13.64
2022-09-21T09:13:10.910Z,13.64
2022-09-21T09:14:10.938Z,13.66
2022-09-21T09:15:10.981Z,13.70
2022-09-21T09:16:11.037Z,13.78
2022-09-21T09:17:11.028Z,13.71
2022-09-21T09:18:11.024Z,13.71
2022-09-21T09:19:11.052Z,13.77
2022-09-21T09:20:11.072Z,13.77
2022-09-21T09:21:11.118Z,13.75
2022-09-21T09:22:11.122Z,13.85
2022-09-21T09:23:11.143Z,13.77
2022-09-21T09:24:11.167Z,13.82
2022-09-21T09:25:11.191Z,13.92
2022-09-21T09:26:11.212Z,14.00
2022-09-21T09:27:11.238Z,13.99
2022-09-21T09:28:11.279Z,13.88
2022-09-21T09:29:11.286Z,14.04
2022-09-21T09:30:11.308Z,14.00
2022-09-21T09:31:11.371Z,14.07
2022-09-21T09:32:11.352Z,14.14
2022-09-21T09:33:11.381Z,14.24
2022-09-21T09:34:11.403Z,14.29
2022-09-21T09:35:11.425Z,14.24
2022-09-21T09:36:11.451Z,14.40
2022-09-21T09:37:11.473Z,14.46
2022-09-21T09:38:11.493Z,14.37
2022-09-21T09:39:11.520Z,14.40
2022-09-21T09:40:11.604Z,14.52
2022-09-21T09:41:11.569Z,14.47
2022-09-21T09:42:11.594Z,14.42
2022-09-21T09:43:11.619Z,14.43
2022-09-21T09:44:11.661Z,14.58
2022-09-21T09:45:11.679Z,14.62
2022-09-21T09:46:13.414Z,14.72
2022-09-21T09:47:11.710Z,14.75
2022-09-21T09:48:11.732Z,14.77
2022-09-21T09:49:11.771Z,14.81
2022-09-21T09:50:11.781Z,14.98
2022-09-21T09:51:11.807Z,14.96
2022-09-21T09:52:11.830Z,14.92
2022-09-21T09:53:11.857Z,14.99
2022-09-21T09:54:11.919Z,14.92
2022-09-21T09:55:11.903Z,15.03
2022-09-21T09:56:11.926Z,15.10
2022-09-21T09:57:11.959Z,15.13
2022-09-21T09:58:11.976Z,15.02
2022-09-21T09:59:11.999Z,15.01
2022-09-21T10:00:12.024Z,15.01
2022-09-21T10:01:12.068Z,15.02
2022-09-21T10:02:12.120Z,15.06
2022-09-21T10:03:12.096Z,15.09
2022-09-21T10:04:12.170Z,15.11
2022-09-21T10:05:12.142Z,15.19
2022-09-21T10:06:12.250Z,15.20
2022-09-21T10:07:12.191Z,15.28
2022-09-21T10:08:12.218Z,15.31
2022-09-21T10:09:12.273Z,15.38
2022-09-21T10:10:12.261Z,15.39
2022-09-21T10:11:12.289Z,15.47
2022-09-21T10:12:12.315Z,15.47
2022-09-21T10:13:12.340Z,15.59
2022-09-21T10:14:12.361Z,15.57
2022-09-21T10:15:12.386Z,15.71
2022-09-21T10:16:12.481Z,15.69
2022-09-21T10:17:12.436Z,15.64
2022-09-21T10:18:12.459Z,15.71
2022-09-21T10:19:12.484Z,15.82
2022-09-21T10:20:12.509Z,15.82
2022-09-21T10:21:12.533Z,15.75
2022-09-21T10:22:12.555Z,15.92
2022-09-21T10:23:12.581Z,15.97
2022-09-21T10:24:12.614Z,15.97
2022-09-21T10:25:12.631Z,16.00
2022-09-21T10:26:12.654Z,16.01
2022-09-21T10:27:12.680Z,16.11
2022-09-21T10:28:12.703Z,16.09
2022-09-21T10:29:12.727Z,16.14
2022-09-21T10:30:12.753Z,16.21
2022-09-21T10:31:12.846Z,16.20
2022-09-21T10:32:14.738Z,16.23
2022-09-21T10:33:12.845Z,16.23
2022-09-21T10:34:12.852Z,16.23
2022-09-21T10:35:12.885Z,16.14
2022-09-21T10:36:12.907Z,16.24
2022-09-21T10:37:12.924Z,16.23
2022-09-21T10:38:12.950Z,16.20
2022-09-21T10:39:12.973Z,16.20
2022-09-21T10:40:13.044Z,16.24
2022-09-21T10:41:13.023Z,16.28
2022-09-21T10:42:13.049Z,16.35
2022-09-21T10:43:13.073Z,16.35
2022-09-21T10:44:13.099Z,16.34
2022-09-21T10:45:13.124Z,16.23
2022-09-21T10:46:13.207Z,16.15
2022-09-21T10:47:16.064Z,16.14
2022-09-21T10:48:13.200Z,16.21
2022-09-21T10:49:13.239Z,16.20
2022-09-21T10:50:13.250Z,16.15
2022-09-21T10:51:13.283Z,16.27
2022-09-21T10:52:13.296Z,16.39
2022-09-21T10:53:13.320Z,16.31
2022-09-21T10:54:13.347Z,16.30
2022-09-21T10:55:13.374Z,16.34
2022-09-21T10:56:17.417Z,16.50
2022-09-21T10:57:13.419Z,16.53
2022-09-21T10:58:13.445Z,16.53
2022-09-21T10:59:13.473Z,16.42
2022-09-21T11:00:13.496Z,16.34
2022-09-21T11:01:13.562Z,16.46
2022-09-21T11:02:13.564Z,16.50
2022-09-21T11:03:13.569Z,16.66
2022-09-21T11:04:13.593Z,16.67
2022-09-21T11:05:13.615Z,16.73
2022-09-21T11:06:13.649Z,16.81
2022-09-21T11:07:13.671Z,16.93
2022-09-21T11:08:13.693Z,16.98
2022-09-21T11:09:13.723Z,17.00
2022-09-21T11:10:13.742Z,17.00
2022-09-21T11:11:13.773Z,17.00
2022-09-21T11:12:13.797Z,16.97
2022-09-21T11:13:13.825Z,17.04
2022-09-21T11:14:13.845Z,17.14
2022-09-21T11:15:13.871Z,17.19
2022-09-21T11:16:14.016Z,17.26
2022-09-21T11:17:13.927Z,17.30
2022-09-21T11:18:13.946Z,17.36
2022-09-21T11:19:13.974Z,17.46
2022-09-21T11:20:13.999Z,17.51
2022-09-21T11:21:14.022Z,17.54
2022-09-21T11:22:14.054Z,17.48
2022-09-21T11:23:14.076Z,17.48
2022-09-21T11:24:14.095Z,17.58
2022-09-21T11:25:14.127Z,17.56
2022-09-21T11:26:14.152Z,17.68
2022-09-21T11:27:14.178Z,17.71
2022-09-21T11:28:14.207Z,17.77
2022-09-21T11:29:14.263Z,17.72
2022-09-21T11:30:21.440Z,17.78
2022-09-21T11:32:19.250Z,17.96
2022-09-21T11:33:18.795Z,17.95
2022-09-21T11:34:18.818Z,17.97
2022-09-21T11:35:18.841Z,17.89
2022-09-21T11:36:18.869Z,17.95
2022-09-21T11:37:18.892Z,17.82
2022-09-21T11:38:18.917Z,17.96
2022-09-21T11:39:18.945Z,17.93
2022-09-21T11:40:19.085Z,17.97
2022-09-21T11:41:18.998Z,18.05
2022-09-21T11:42:19.028Z,18.02
2022-09-21T11:43:21.873Z,18.23
2022-09-21T11:44:19.367Z,18.30
2022-09-21T11:45:19.124Z,18.32
2022-09-21T11:46:19.214Z,18.33
2022-09-21T11:47:19.156Z,18.36
2022-09-21T11:48:19.179Z,18.44
2022-09-21T11:49:19.209Z,18.45
2022-09-21T11:50:30.234Z,18.41
2022-09-21T11:51:19.276Z,18.36
2022-09-21T11:52:19.285Z,18.37
2022-09-21T11:53:19.309Z,18.32
2022-09-21T11:54:19.339Z,18.33
2022-09-21T11:55:19.365Z,18.42
2022-09-21T11:56:19.393Z,18.41
2022-09-21T11:57:19.420Z,18.47
2022-09-21T11:58:19.443Z,18.48
2022-09-21T11:59:19.484Z,18.50
2022-09-21T12:00:19.495Z,18.51
2022-09-21T12:01:19.522Z,18.45
2022-09-21T12:02:19.782Z,18.48
2022-09-21T12:03:19.577Z,18.54
2022-09-21T12:04:19.602Z,18.62
2022-09-21T12:05:19.629Z,18.76
2022-09-21T12:06:19.653Z,18.84
2022-09-21T12:07:19.681Z,18.87
2022-09-21T12:08:19.707Z,18.81
2022-09-21T12:09:19.731Z,18.87
2022-09-21T12:10:19.759Z,18.78
2022-09-21T12:11:19.798Z,18.81
2022-09-21T12:12:19.816Z,18.62
2022-09-21T12:13:19.842Z,18.60
2022-09-21T12:14:19.862Z,18.36
2022-09-21T12:15:19.942Z,18.33
2022-09-21T12:16:19.954Z,18.37
2022-09-21T12:17:19.950Z,18.23
2022-09-21T12:18:19.978Z,18.29
2022-09-21T12:19:20.034Z,18.32
2022-09-21T12:20:20.030Z,18.18
2022-09-21T12:21:20.052Z,18.37
2022-09-21T12:22:20.080Z,18.23
2022-09-21T12:23:20.103Z,18.23
2022-09-21T12:24:20.132Z,18.18
2022-09-21T12:25:20.158Z,18.11
2022-09-21T12:26:20.182Z,18.08
2022-09-21T12:27:20.213Z,17.95
2022-09-21T12:28:20.235Z,18.00
2022-09-21T12:29:20.263Z,17.93
2022-09-21T12:30:20.289Z,17.92
2022-09-21T12:31:20.383Z,18.00
2022-09-21T12:32:20.344Z,18.11
2022-09-21T12:33:20.371Z,18.17
2022-09-21T12:34:20.393Z,18.26
2022-09-21T12:35:20.421Z,18.23
2022-09-21T12:36:20.453Z,18.23
2022-09-21T12:37:20.475Z,18.10
2022-09-21T12:38:20.504Z,18.26
2022-09-21T12:39:20.529Z,18.25
2022-09-21T12:40:20.583Z,18.30
2022-09-21T12:41:20.576Z,18.33
2022-09-21T12:42:20.609Z,18.48
2022-09-21T12:43:20.637Z,18.54
2022-09-21T12:44:20.686Z,18.72
2022-09-21T12:45:20.688Z,18.75
2022-09-21T12:46:20.809Z,18.90
2022-09-21T12:47:20.747Z,18.84
2022-09-21T12:48:20.769Z,18.87
2022-09-21T12:49:20.795Z,18.87
2022-09-21T12:50:20.820Z,18.98
2022-09-21T12:51:20.848Z,18.98
2022-09-21T12:52:20.873Z,19.13
2022-09-21T12:53:20.900Z,19.10
2022-09-21T12:54:20.931Z,19.25
2022-09-21T12:55:20.956Z,19.29
2022-09-21T12:56:20.983Z,19.18
2022-09-21T12:57:42.506Z,19.23
2022-09-21T12:58:21.032Z,19.18
2022-09-21T12:59:21.066Z,19.21
2022-09-21T13:00:21.089Z,19.23
2022-09-21T13:01:21.205Z,19.25
2022-09-21T13:02:21.279Z,19.10
2022-09-21T13:03:21.171Z,19.14
2022-09-21T13:04:21.196Z,19.10
2022-09-21T13:05:21.222Z,19.25
2022-09-21T13:06:21.247Z,19.29
2022-09-21T13:07:21.287Z,19.25
2022-09-21T13:08:21.356Z,19.32
2022-09-21T13:09:21.327Z,19.29
2022-09-21T13:10:21.359Z,19.31
2022-09-21T13:11:21.389Z,19.29
2022-09-21T13:12:21.435Z,19.26
2022-09-21T13:13:21.435Z,19.21
2022-09-21T13:14:21.467Z,19.21
2022-09-21T13:15:21.496Z,19.26
2022-09-21T13:16:21.570Z,19.23
2022-09-21T13:17:21.562Z,19.23
2022-09-21T13:18:21.577Z,19.23
2022-09-21T13:19:21.604Z,19.14
2022-09-21T13:20:21.628Z,19.11
2022-09-21T13:21:21.655Z,19.16
2022-09-21T13:22:21.684Z,19.11
2022-09-21T13:23:21.717Z,19.16
2022-09-21T13:24:21.742Z,19.23
2022-09-21T13:25:21.768Z,19.29
2022-09-21T13:26:24.647Z,19.31
2022-09-21T13:27:21.821Z,19.43
2022-09-21T13:28:21.850Z,19.46
2022-09-21T13:29:21.876Z,19.41
2022-09-21T13:30:21.899Z,19.46
2022-09-21T13:31:39.991Z,19.47
2022-09-21T13:32:22.051Z,19.47
2022-09-21T13:33:21.986Z,19.32
2022-09-21T13:34:22.016Z,19.13
2022-09-21T13:35:22.042Z,19.08
2022-09-21T13:36:22.065Z,18.99
2022-09-21T13:37:22.112Z,18.82
2022-09-21T13:38:22.123Z,18.78
2022-09-21T13:39:22.150Z,18.76
2022-09-21T13:40:22.234Z,18.75
2022-09-21T13:41:22.206Z,18.81
2022-09-21T13:42:22.229Z,18.76
2022-09-21T13:43:22.261Z,18.78
2022-09-21T13:44:22.287Z,18.69
2022-09-21T13:45:22.308Z,18.65
2022-09-21T13:46:22.392Z,18.70
2022-09-21T13:47:22.368Z,18.57
2022-09-21T13:48:22.394Z,18.66
2022-09-21T13:49:22.422Z,18.54
2022-09-21T13:50:22.464Z,18.54
2022-09-21T13:51:22.478Z,18.58
2022-09-21T13:52:22.515Z,18.51
2022-09-21T13:53:22.532Z,18.58
2022-09-21T13:54:22.562Z,18.57
2022-09-21T13:55:22.589Z,18.62
2022-09-21T13:56:22.611Z,18.52
2022-09-21T13:57:22.645Z,18.72
2022-09-21T13:58:22.666Z,18.72
2022-09-21T13:59:22.695Z,18.85